Time;durP1;ratioP1;P1;durP2;ratioP2;P2;SDS_P1;SDS_P2;PMS_P1;PMS_P2;Temp;Humidity;BMP_temperature;BMP_pressure;BME280_temperature;BME280_humidity;BME280_pressure;Samples;Min_cycle;Max_cycle;Signal;HPM_P1;HPM_P2
2021/12/19 00:08:27;;;;;;;19.50;4.75;;;;;;;;;;5010568;28;20440;-64
2021/12/19 00:10:18;;;;;;;23.30;3.45;;;;;;;;;;4971577;28;20047;-62
2021/12/19 00:12:49;;;;;;;16.40;3.45;;;;;;;;;;4991302;28;20046;-65
2021/12/19 00:15:19;;;;;;;18.02;3.42;;;;;;;;;;4977730;28;20069;-62
2021/12/19 00:17:50;;;;;;;16.10;3.60;;;;;;;;;;4994559;28;20054;-62
2021/12/19 00:20:22;;;;;;;19.50;3.50;;;;;;;;;;5010255;28;20054;-62
2021/12/19 00:23:13;;;;;;;14.52;3.53;;;;;;;;;;4971054;28;20070;-66
2021/12/19 00:25:44;;;;;;;8.30;3.83;;;;;;;;;;4971107;28;20047;-62
2021/12/19 00:28:14;;;;;;;13.35;4.15;;;;;;;;;;4956116;28;20407;-62
2021/12/19 00:30:45;;;;;;;9.98;3.13;;;;;;;;;;4951610;28;20058;-63
2021/12/19 00:33:16;;;;;;;11.52;4.07;;;;;;;;;;4951647;29;20415;-63
2021/12/19 00:35:47;;;;;;;15.05;3.13;;;;;;;;;;4951691;29;20094;-62
2021/12/19 00:38:18;;;;;;;9.48;3.15;;;;;;;;;;4951422;29;20059;-63
2021/12/19 00:40:48;;;;;;;12.90;3.20;;;;;;;;;;4935967;29;20063;-62
2021/12/19 00:46:08;;;;;;;15.63;3.13;;;;;;;;;;4951822;29;20052;-62
2021/12/19 00:48:48;;;;;;;13.88;2.78;;;;;;;;;;4950806;28;20054;-61
2021/12/19 00:51:22;;;;;;;5.10;2.20;;;;;;;;;;4951600;28;20057;-62
2021/12/19 00:53:54;;;;;;;6.55;2.42;;;;;;;;;;4922569;28;20059;-62
2021/12/19 00:56:25;;;;;;;5.68;2.65;;;;;;;;;;4970553;28;20054;-63
2021/12/19 00:58:56;;;;;;;9.25;2.63;;;;;;;;;;4951190;29;20051;-61
2021/12/19 01:01:27;;;;;;;10.15;2.03;;;;;;;;;;4965571;28;20061;-62
2021/12/19 01:03:57;;;;;;;9.35;2.58;;;;;;;;;;4922691;28;20058;-62
2021/12/19 01:06:29;;;;;;;6.53;2.35;;;;;;;;;;4970237;28;20157;-62
2021/12/19 01:08:59;;;;;;;5.72;2.47;;;;;;;;;;4950896;29;20488;-64
2021/12/19 01:11:30;;;;;;;6.63;2.28;;;;;;;;;;4935557;29;20463;-62
2021/12/19 01:14:01;;;;;;;6.93;2.30;;;;;;;;;;4950891;29;20051;-62
2021/12/19 01:16:32;;;;;;;8.20;2.25;;;;;;;;;;4951230;29;20066;-62
2021/12/19 01:19:03;;;;;;;5.03;2.15;;;;;;;;;;4951011;29;20059;-62
2021/12/19 01:21:34;;;;;;;5.68;2.53;;;;;;;;;;4954241;28;20311;-62
2021/12/19 01:24:05;;;;;;;8.38;2.35;;;;;;;;;;4969999;28;20050;-63
2021/12/19 01:26:35;;;;;;;3.90;2.38;;;;;;;;;;4934480;28;20066;-62
2021/12/19 01:29:05;;;;;;;10.23;2.58;;;;;;;;;;4956696;28;20608;-63
2021/12/19 01:31:38;;;;;;;9.40;2.95;;;;;;;;;;4957102;28;20446;-63
2021/12/19 01:34:12;;;;;;;4.13;2.08;;;;;;;;;;4989245;28;20077;-63
2021/12/19 01:36:44;;;;;;;5.57;2.20;;;;;;;;;;4989432;28;20058;-62
2021/12/19 01:39:15;;;;;;;5.82;2.30;;;;;;;;;;4950412;29;20051;-62
2021/12/19 01:41:51;;;;;;;7.55;3.22;;;;;;;;;;4902576;28;20440;-62
2021/12/19 01:44:24;;;;;;;6.43;2.60;;;;;;;;;;4949971;28;20070;-63
2021/12/19 01:46:54;;;;;;;6.07;2.45;;;;;;;;;;4938465;28;20074;-62
2021/12/19 01:49:24;;;;;;;5.05;2.13;;;;;;;;;;4950576;28;20062;-62
2021/12/19 01:51:55;;;;;;;5.93;2.10;;;;;;;;;;4950455;28;20059;-62
2021/12/19 01:54:25;;;;;;;5.90;2.55;;;;;;;;;;4950319;28;20055;-65
2021/12/19 01:56:55;;;;;;;5.55;3.08;;;;;;;;;;4950627;28;20571;-62
2021/12/19 01:59:26;;;;;;;5.63;2.55;;;;;;;;;;4972783;28;20054;-62
2021/12/19 02:01:57;;;;;;;4.50;2.33;;;;;;;;;;4953206;28;20043;-62
2021/12/19 02:04:30;;;;;;;;;;;;;;;;;;4970124;28;20063;-62
2021/12/19 02:07:01;;;;;;;4.93;2.05;;;;;;;;;;4969713;28;19930;-61
2021/12/19 02:09:32;;;;;;;4.03;2.20;;;;;;;;;;4969624;28;20065;-62
2021/12/19 02:12:03;;;;;;;4.55;2.13;;;;;;;;;;4969855;28;20063;-63
2021/12/19 02:14:36;;;;;;;9.60;2.30;;;;;;;;;;4969492;28;20063;-62
2021/12/19 02:17:06;;;;;;;6.10;2.25;;;;;;;;;;4969303;28;20050;-62
2021/12/19 02:19:36;;;;;;;8.80;2.70;;;;;;;;;;4958165;28;20055;-62
2021/12/19 02:22:07;;;;;;;3.63;2.25;;;;;;;;;;4966256;28;20059;-61
2021/12/19 02:24:37;;;;;;;12.98;2.83;;;;;;;;;;4958868;28;20472;-62
2021/12/19 02:27:08;;;;;;;6.22;2.28;;;;;;;;;;4963118;28;20051;-62
2021/12/19 02:29:38;;;;;;;5.47;2.28;;;;;;;;;;4968790;28;20059;-63
2021/12/19 02:32:08;;;;;;;5.13;2.20;;;;;;;;;;4921023;28;20051;-62
2021/12/19 02:34:43;;;;;;;6.72;1.98;;;;;;;;;;4911504;29;20052;-62
2021/12/19 02:48:41;;;;;;;8.43;2.70;;;;;;;;;;4912130;29;20060;-63
2021/12/19 02:51:11;;;;;;;6.38;2.60;;;;;;;;;;4911796;29;20060;-62
2021/12/19 02:53:44;;;;;;;7.45;2.38;;;;;;;;;;4910887;29;20060;-64
2021/12/19 02:56:15;;;;;;;6.20;2.10;;;;;;;;;;4876350;29;20049;-62
2021/12/19 02:58:46;;;;;;;4.65;2.10;;;;;;;;;;4878214;29;20061;-63
2021/12/19 03:01:18;;;;;;;9.82;2.35;;;;;;;;;;4872656;29;20065;-63
2021/12/19 03:03:49;;;;;;;5.18;2.22;;;;;;;;;;4860067;29;20517;-63
2021/12/19 03:06:19;;;;;;;4.30;2.00;;;;;;;;;;4875861;29;20064;-65
2021/12/19 03:08:51;;;;;;;4.95;2.53;;;;;;;;;;4863963;29;20073;-64
2021/12/19 03:19:34;;;;;;;6.35;2.55;;;;;;;;;;4933851;29;20075;-62
2021/12/19 03:22:05;;;;;;;4.22;2.50;;;;;;;;;;4934141;29;20052;-63
2021/12/19 03:24:35;;;;;;;5.95;2.38;;;;;;;;;;4933757;29;20056;-64
2021/12/19 03:27:07;;;;;;;4.97;2.58;;;;;;;;;;4930192;29;20059;-68
2021/12/19 03:29:37;;;;;;;5.13;2.28;;;;;;;;;;4914844;29;20063;-62
2021/12/19 03:32:07;;;;;;;6.97;2.47;;;;;;;;;;4929975;29;20509;-62
2021/12/19 03:34:39;;;;;;;10.80;2.35;;;;;;;;;;4933522;29;20048;-62
2021/12/19 03:37:10;;;;;;;5.80;2.28;;;;;;;;;;4965936;28;20087;-62
2021/12/19 03:40:09;;;;;;;5.65;2.28;;;;;;;;;;4987433;28;20529;-62
2021/12/19 03:42:46;;;;;;;6.70;2.55;;;;;;;;;;4991434;28;20436;-62
2021/12/19 03:45:19;;;;;;;9.32;2.42;;;;;;;;;;4991457;28;20449;-64
2021/12/19 03:47:51;;;;;;;5.78;2.50;;;;;;;;;;4991368;28;20038;-62
2021/12/19 03:50:23;;;;;;;4.43;2.50;;;;;;;;;;4958702;28;20062;-64
2021/12/19 03:52:55;;;;;;;5.45;2.42;;;;;;;;;;4952318;29;20043;-64
2021/12/19 03:55:25;;;;;;;5.05;2.05;;;;;;;;;;4932861;29;20059;-64
2021/12/19 03:57:58;;;;;;;5.15;2.30;;;;;;;;;;4933268;29;20056;-62
2021/12/19 04:00:31;;;;;;;4.55;2.30;;;;;;;;;;4933093;29;20078;-62
2021/12/19 04:03:06;;;;;;;8.20;3.00;;;;;;;;;;4933102;29;20055;-63
2021/12/19 04:05:38;;;;;;;3.90;2.30;;;;;;;;;;4909292;29;20075;-62
2021/12/19 04:08:08;;;;;;;;;;;;;;;;;;4933313;29;20055;-62
2021/12/19 04:10:39;;;;;;;5.25;2.55;;;;;;;;;;4932959;29;19933;-63
2021/12/19 04:13:09;;;;;;;9.88;2.35;;;;;;;;;;4932990;29;20048;-65
2021/12/19 04:15:40;;;;;;;6.32;2.70;;;;;;;;;;4951832;29;20091;-64
2021/12/19 04:18:10;;;;;;;6.05;2.47;;;;;;;;;;4952049;29;20055;-66
2021/12/19 04:20:41;;;;;;;5.95;2.47;;;;;;;;;;4951600;29;20054;-63
2021/12/19 04:23:11;;;;;;;7.68;2.67;;;;;;;;;;4952047;29;20067;-62
2021/12/19 04:25:41;;;;;;;5.70;2.45;;;;;;;;;;4963028;28;20071;-63
2021/12/19 04:28:11;;;;;;;6.72;2.38;;;;;;;;;;4971495;28;20046;-64
2021/12/19 04:30:42;;;;;;;7.28;2.50;;;;;;;;;;4981912;28;20062;-64
2021/12/19 04:33:13;;;;;;;5.93;2.38;;;;;;;;;;4979650;28;20063;-62
2021/12/19 04:35:45;;;;;;;7.07;2.38;;;;;;;;;;4965626;28;20051;-62
2021/12/19 04:54:58;;;;;;;3.50;1.98;;;;;;;;;;4970471;28;20098;-63
2021/12/19 04:57:38;;;;;;;;;;;;;;;;;;4970985;28;20057;-63
2021/12/19 05:00:14;;;;;;;5.30;2.13;;;;;;;;;;4970369;28;19933;-62
2021/12/19 05:02:55;;;;;;;5.07;2.03;;;;;;;;;;4970760;28;20070;-63
2021/12/19 05:16:30;;;;;;;5.53;1.70;;;;;;;;;;4979247;28;20062;-63
2021/12/19 05:19:07;;;;;;;3.78;2.42;;;;;;;;;;4989071;28;20446;-63
2021/12/19 05:21:40;;;;;;;3.78;1.90;;;;;;;;;;4989860;28;20517;-64
2021/12/19 05:27:00;;;;;;;3.85;2.05;;;;;;;;;;4931475;29;20063;-63
2021/12/19 05:29:32;;;;;;;5.63;2.05;;;;;;;;;;4931351;29;20075;-65
2021/12/19 05:32:04;;;;;;;4.60;2.42;;;;;;;;;;4912490;29;20165;-64
2021/12/19 05:34:36;;;;;;;5.80;2.42;;;;;;;;;;4912735;29;20052;-63
2021/12/19 05:45:32;;;;;;;3.63;1.52;;;;;;;;;;4912634;29;20060;-63
2021/12/19 05:48:03;;;;;;;5.32;1.63;;;;;;;;;;4912499;29;20067;-65
2021/12/19 05:50:33;;;;;;;4.38;1.58;;;;;;;;;;4900456;29;20063;-63
2021/12/19 05:53:03;;;;;;;3.70;1.73;;;;;;;;;;4931618;29;20074;-69
2021/12/19 05:55:33;;;;;;;3.40;1.67;;;;;;;;;;4931674;29;20059;-63
2021/12/19 05:58:04;;;;;;;4.32;1.77;;;;;;;;;;4911833;29;20048;-67
2021/12/19 06:00:35;;;;;;;6.47;1.70;;;;;;;;;;4931470;29;20535;-66
2021/12/19 06:03:06;;;;;;;4.57;1.35;;;;;;;;;;4969374;28;20050;-65
2021/12/19 06:05:36;;;;;;;5.85;1.63;;;;;;;;;;4950233;29;20055;-64
2021/12/19 06:08:07;;;;;;;3.22;1.50;;;;;;;;;;4912267;29;20052;-65
2021/12/19 06:10:38;;;;;;;3.78;1.48;;;;;;;;;;4913017;29;20062;-63
2021/12/19 06:13:08;;;;;;;4.93;2.13;;;;;;;;;;4931220;29;20451;-65
2021/12/19 06:15:38;;;;;;;3.90;1.63;;;;;;;;;;4931477;29;20508;-65
2021/12/19 06:18:08;;;;;;;5.22;1.58;;;;;;;;;;4893267;29;20053;-64
2021/12/19 06:20:40;;;;;;;3.15;1.58;;;;;;;;;;4893316;29;20502;-64
2021/12/19 06:23:10;;;;;;;6.57;1.60;;;;;;;;;;4874232;29;20048;-64
2021/12/19 06:25:46;;;;;;;4.25;1.42;;;;;;;;;;4874707;29;20084;-64
2021/12/19 06:28:18;;;;;;;5.20;1.60;;;;;;;;;;4859000;29;20068;-65
2021/12/19 06:30:49;;;;;;;3.58;1.33;;;;;;;;;;4846658;29;20053;-63
2021/12/19 06:33:20;;;;;;;2.92;1.17;;;;;;;;;;4878499;29;20537;-63
2021/12/19 06:35:56;;;;;;;4.25;1.90;;;;;;;;;;4884224;29;20068;-64
2021/12/19 06:38:26;;;;;;;3.10;1.33;;;;;;;;;;4874424;29;20065;-64
2021/12/19 06:40:56;;;;;;;3.30;1.40;;;;;;;;;;4875272;29;20064;-63
2021/12/19 06:43:30;;;;;;;3.58;1.27;;;;;;;;;;4880838;29;20064;-63
2021/12/19 06:46:00;;;;;;;3.78;1.75;;;;;;;;;;4919841;29;20411;-64
2021/12/19 06:48:30;;;;;;;2.45;1.38;;;;;;;;;;4953440;29;20042;-63
2021/12/19 06:51:00;;;;;;;5.28;1.75;;;;;;;;;;4972799;28;20050;-64
2021/12/19 06:53:31;;;;;;;6.20;1.65;;;;;;;;;;4972816;28;20490;-63
2021/12/19 06:56:01;;;;;;;4.78;1.23;;;;;;;;;;4933721;29;20055;-63
2021/12/19 06:58:31;;;;;;;4.90;1.40;;;;;;;;;;4953124;29;20055;-64
2021/12/19 07:01:02;;;;;;;4.75;1.50;;;;;;;;;;4888822;29;20063;-63
2021/12/19 07:03:32;;;;;;;3.30;1.40;;;;;;;;;;4899329;29;20047;-63
2021/12/19 07:06:03;;;;;;;2.72;1.25;;;;;;;;;;4915238;29;20064;-64
2021/12/19 07:08:33;;;;;;;4.57;1.05;;;;;;;;;;4915317;29;20052;-65
2021/12/19 07:11:03;;;;;;;2.85;1.40;;;;;;;;;;4933934;29;20055;-63
2021/12/19 07:13:34;;;;;;;3.45;1.33;;;;;;;;;;4934084;29;20059;-63
2021/12/19 07:16:06;;;;;;;4.25;1.30;;;;;;;;;;4943209;29;20058;-65
2021/12/19 07:18:36;;;;;;;5.68;1.48;;;;;;;;;;4943578;28;20054;-68
2021/12/19 07:21:08;;;;;;;3.03;1.58;;;;;;;;;;4972082;28;20159;-63
2021/12/19 07:23:39;;;;;;;3.17;1.50;;;;;;;;;;4972132;28;20062;-67
2021/12/19 07:26:11;;;;;;;3.45;1.27;;;;;;;;;;4937262;28;20055;-63
2021/12/19 07:28:44;;;;;;;2.67;1.90;;;;;;;;;;4924362;29;20423;-66
2021/12/19 07:31:18;;;;;;;1.80;1.33;;;;;;;;;;4914749;29;20559;-66
2021/12/19 07:33:49;;;;;;;6.20;1.63;;;;;;;;;;4914960;29;20063;-63
2021/12/19 07:36:23;;;;;;;6.47;1.33;;;;;;;;;;4939906;28;20063;-68
2021/12/19 07:39:00;;;;;;;3.65;1.58;;;;;;;;;;4972273;28;20541;-66
2021/12/19 07:41:30;;;;;;;6.97;1.70;;;;;;;;;;4952166;28;20460;-64
2021/12/19 07:44:01;;;;;;;4.75;1.48;;;;;;;;;;4914414;29;20055;-64
2021/12/19 07:46:32;;;;;;;3.70;1.80;;;;;;;;;;4914547;29;20394;-64
2021/12/19 07:49:03;;;;;;;3.63;1.25;;;;;;;;;;4888612;29;20060;-63
2021/12/19 07:51:33;;;;;;;6.38;1.40;;;;;;;;;;4879900;29;20060;-64
2021/12/19 07:54:03;;;;;;;5.13;1.25;;;;;;;;;;4895761;29;20472;-64
2021/12/19 07:56:34;;;;;;;2.83;2.08;;;;;;;;;;4919322;29;20405;-64
2021/12/19 07:59:07;;;;;;;1.98;1.10;;;;;;;;;;4933568;29;20062;-64
2021/12/19 08:01:37;;;;;;;2.85;1.50;;;;;;;;;;4933390;29;20056;-64
2021/12/19 08:04:07;;;;;;;3.65;1.45;;;;;;;;;;4882636;29;20056;-64
2021/12/19 08:06:37;;;;;;;5.10;1.30;;;;;;;;;;4913981;29;20520;-64
2021/12/19 08:09:20;;;;;;;3.97;1.40;;;;;;;;;;4883111;29;20453;-63
2021/12/19 08:11:51;;;;;;;6.45;1.50;;;;;;;;;;4914310;29;20052;-63
2021/12/19 08:14:21;;;;;;;4.35;1.40;;;;;;;;;;4919964;29;20059;-63
2021/12/19 08:16:51;;;;;;;3.15;1.60;;;;;;;;;;4952091;29;20050;-65
2021/12/19 08:19:21;;;;;;;5.05;1.75;;;;;;;;;;4962999;28;20435;-64
2021/12/19 08:21:53;;;;;;;3.15;1.13;;;;;;;;;;4971513;28;20066;-67
2021/12/19 08:24:24;;;;;;;1.77;1.13;;;;;;;;;;4951806;29;20503;-64
2021/12/19 08:26:54;;;;;;;6.03;1.98;;;;;;;;;;4925304;29;20137;-63
2021/12/19 08:29:24;;;;;;;5.95;1.65;;;;;;;;;;4932702;29;21043;-65
2021/12/19 08:31:54;;;;;;;3.72;1.50;;;;;;;;;;4928884;29;20078;-63
2021/12/19 08:34:25;;;;;;;7.00;1.48;;;;;;;;;;4913739;29;20052;-64
2021/12/19 08:36:55;;;;;;;3.13;1.30;;;;;;;;;;4932042;29;20056;-64
2021/12/19 08:39:28;;;;;;;3.95;1.52;;;;;;;;;;4933115;29;20051;-64
2021/12/19 08:41:58;;;;;;;3.85;1.20;;;;;;;;;;4943279;29;20055;-65
2021/12/19 08:44:29;;;;;;;4.65;1.45;;;;;;;;;;4951764;29;20055;-64
2021/12/19 08:46:59;;;;;;;2.60;1.15;;;;;;;;;;4886388;29;20484;-64
2021/12/19 08:49:29;;;;;;;3.05;1.20;;;;;;;;;;4931982;29;20586;-64
2021/12/19 08:52:00;;;;;;;5.35;1.45;;;;;;;;;;4912825;29;20056;-63
2021/12/19 08:54:31;;;;;;;5.55;1.08;;;;;;;;;;4912976;29;20758;-65
2021/12/19 08:57:01;;;;;;;4.88;1.50;;;;;;;;;;4922968;29;20059;-63
2021/12/19 08:59:31;;;;;;;3.30;1.58;;;;;;;;;;4932291;29;20063;-65
2021/12/19 09:02:02;;;;;;;8.63;1.70;;;;;;;;;;4931656;29;20064;-65
2021/12/19 09:04:33;;;;;;;5.28;1.27;;;;;;;;;;4932066;29;20056;-64
2021/12/19 09:07:04;;;;;;;5.75;2.08;;;;;;;;;;4931795;29;21041;-64
2021/12/19 09:09:34;;;;;;;2.58;1.23;;;;;;;;;;4932130;29;20056;-64
2021/12/19 09:12:04;;;;;;;3.38;1.30;;;;;;;;;;4931918;29;20060;-66
2021/12/19 09:14:35;;;;;;;2.95;1.67;;;;;;;;;;4941256;29;20421;-65
2021/12/19 09:17:05;;;;;;;3.35;1.10;;;;;;;;;;4931359;29;20058;-68
2021/12/19 09:19:36;;;;;;;3.63;1.10;;;;;;;;;;4931796;29;20048;-64
2021/12/19 09:22:06;;;;;;;4.32;1.23;;;;;;;;;;4950499;29;20081;-65
2021/12/19 09:24:36;;;;;;;3.78;1.25;;;;;;;;;;4941889;29;20059;-64
2021/12/19 09:27:10;;;;;;;2.67;1.05;;;;;;;;;;4940884;28;20058;-65
2021/12/19 09:29:40;;;;;;;5.85;1.27;;;;;;;;;;4941277;29;20200;-66
2021/12/19 09:32:10;;;;;;;4.30;1.25;;;;;;;;;;4915832;29;20059;-66
2021/12/19 09:34:40;;;;;;;2.53;1.00;;;;;;;;;;4931964;29;20055;-66
2021/12/19 09:37:12;;;;;;;2.15;1.10;;;;;;;;;;4931295;29;20060;-64
2021/12/19 09:39:44;;;;;;;4.82;1.52;;;;;;;;;;4951105;28;20055;-65
2021/12/19 09:42:19;;;;;;;5.47;1.40;;;;;;;;;;4906657;28;20058;-66
2021/12/19 09:44:49;;;;;;;2.85;1.05;;;;;;;;;;4969995;28;20047;-70
2021/12/19 09:47:20;;;;;;;3.10;1.25;;;;;;;;;;4954117;28;20072;-67
2021/12/19 09:49:51;;;;;;;2.97;1.27;;;;;;;;;;4970029;28;20490;-66
2021/12/19 09:52:22;;;;;;;2.88;1.00;;;;;;;;;;4951496;28;20544;-65
2021/12/19 09:54:53;;;;;;;3.50;1.08;;;;;;;;;;4952422;28;20060;-66
2021/12/19 09:57:24;;;;;;;6.68;1.00;;;;;;;;;;4921734;28;20062;-64
2021/12/19 09:59:55;;;;;;;3.08;1.27;;;;;;;;;;4970017;28;20047;-67
2021/12/19 10:02:26;;;;;;;4.78;1.20;;;;;;;;;;4969940;28;20058;-65
2021/12/19 10:04:56;;;;;;;4.03;0.90;;;;;;;;;;4983205;28;20050;-69
2021/12/19 10:07:31;;;;;;;2.97;1.00;;;;;;;;;;4977177;28;20065;-64
2021/12/19 10:10:13;;;;;;;2.47;1.08;;;;;;;;;;4993195;28;20058;-65
2021/12/19 10:12:49;;;;;;;2.95;0.98;;;;;;;;;;4993299;28;20058;-66
2021/12/19 10:15:34;;;;;;;5.55;1.10;;;;;;;;;;4973389;28;20160;-68
2021/12/19 10:18:11;;;;;;;3.50;1.00;;;;;;;;;;4953754;29;20046;-63
2021/12/19 10:20:51;;;;;;;5.32;1.13;;;;;;;;;;4953752;29;20059;-70
2021/12/19 10:23:27;;;;;;;2.65;1.40;;;;;;;;;;4921924;29;20451;-65
2021/12/19 10:26:07;;;;;;;5.60;1.30;;;;;;;;;;4953825;29;20538;-63
2021/12/19 10:28:54;;;;;;;2.10;1.02;;;;;;;;;;4954139;29;20054;-65
2021/12/19 10:31:28;;;;;;;2.17;0.98;;;;;;;;;;4939386;28;20058;-64
2021/12/19 10:34:16;;;;;;;2.55;1.05;;;;;;;;;;4992986;28;20161;-64
2021/12/19 10:36:46;;;;;;;3.20;1.02;;;;;;;;;;5008283;28;20043;-65
2021/12/19 10:39:26;;;;;;;1.55;1.13;;;;;;;;;;4992406;28;20413;-63
2021/12/19 10:41:59;;;;;;;2.85;0.90;;;;;;;;;;4988082;28;20521;-65
2021/12/19 10:47:30;;;;;;;3.97;1.25;;;;;;;;;;5006583;28;20058;-64
2021/12/19 10:50:02;;;;;;;2.40;1.25;;;;;;;;;;4940731;28;20050;-68
2021/12/19 10:52:39;;;;;;;1.67;1.00;;;;;;;;;;4979243;28;20054;-63
2021/12/19 10:55:14;;;;;;;2.17;1.10;;;;;;;;;;5003165;28;20136;-64
2021/12/19 10:57:44;;;;;;;4.10;1.02;;;;;;;;;;4982730;28;20186;-63
2021/12/19 11:00:27;;;;;;;3.60;1.10;;;;;;;;;;5031715;28;20045;-63
2021/12/19 11:02:57;;;;;;;1.48;0.90;;;;;;;;;;4991777;28;20046;-63
2021/12/19 11:05:48;;;;;;;3.33;1.00;;;;;;;;;;4992563;28;20062;-63
2021/12/19 11:08:18;;;;;;;4.30;1.30;;;;;;;;;;4959416;28;20454;-62
2021/12/19 11:10:48;;;;;;;5.05;1.20;;;;;;;;;;4991957;28;20058;-63
2021/12/19 11:13:22;;;;;;;3.13;1.30;;;;;;;;;;4992122;28;20415;-63
2021/12/19 11:15:52;;;;;;;2.35;1.02;;;;;;;;;;4990988;28;20059;-62
2021/12/19 11:18:22;;;;;;;2.35;0.90;;;;;;;;;;5011113;28;20536;-62
2021/12/19 11:20:52;;;;;;;4.93;0.95;;;;;;;;;;4972093;28;20051;-63
2021/12/19 11:23:26;;;;;;;4.60;1.40;;;;;;;;;;4972458;28;20055;-63
2021/12/19 11:26:00;;;;;;;5.13;1.15;;;;;;;;;;4957179;28;20770;-63
2021/12/19 11:28:32;;;;;;;2.88;1.00;;;;;;;;;;4972272;28;20058;-63
2021/12/19 11:31:02;;;;;;;3.13;0.98;;;;;;;;;;4956167;28;20051;-65
2021/12/19 11:34:01;;;;;;;2.83;0.95;;;;;;;;;;4972242;28;20050;-62
2021/12/19 11:36:42;;;;;;;2.30;0.93;;;;;;;;;;4933205;28;20048;-62
2021/12/19 11:39:14;;;;;;;2.35;1.13;;;;;;;;;;4902044;29;20052;-64
2021/12/19 11:42:15;;;;;;;5.47;1.67;;;;;;;;;;4951991;28;20432;-63
2021/12/19 11:47:53;;;;;;;1.60;0.90;;;;;;;;;;4933525;29;20070;-63
2021/12/19 11:50:26;;;;;;;4.10;1.13;;;;;;;;;;4933367;29;20059;-63
2021/12/19 11:53:23;;;;;;;2.92;0.80;;;;;;;;;;4914326;29;20056;-63
2021/12/19 11:56:06;;;;;;;2.03;0.98;;;;;;;;;;4914519;29;20056;-64
2021/12/19 11:58:55;;;;;;;6.05;1.10;;;;;;;;;;4910529;29;20068;-64
2021/12/19 12:01:28;;;;;;;3.08;1.00;;;;;;;;;;4895215;29;20052;-69
2021/12/19 12:04:13;;;;;;;3.28;0.90;;;;;;;;;;4895413;29;20114;-63
2021/12/19 12:06:58;;;;;;;2.72;1.10;;;;;;;;;;4895321;29;20067;-64
2021/12/19 12:09:39;;;;;;;2.78;0.82;;;;;;;;;;4895242;29;20061;-66
2021/12/19 12:12:15;;;;;;;7.32;1.38;;;;;;;;;;4879396;29;20069;-64
2021/12/19 12:14:55;;;;;;;2.22;0.90;;;;;;;;;;4877994;29;20067;-65
2021/12/19 12:17:35;;;;;;;7.53;5.55;;;;;;;;;;4913761;29;20052;-64
2021/12/19 12:20:17;;;;;;;1.92;0.88;;;;;;;;;;4913984;29;20067;-66
2021/12/19 12:22:53;;;;;;;4.53;2.00;;;;;;;;;;4973724;28;20504;-65
2021/12/19 12:25:28;;;;;;;2.97;0.90;;;;;;;;;;4990471;28;20129;-64
2021/12/19 12:28:06;;;;;;;1.65;0.80;;;;;;;;;;4990587;28;20046;-63
2021/12/19 12:30:40;;;;;;;4.28;0.98;;;;;;;;;;4994653;28;20060;-63
2021/12/19 12:33:17;;;;;;;2.65;1.08;;;;;;;;;;5030085;28;20045;-63
2021/12/19 12:35:50;;;;;;;4.20;0.98;;;;;;;;;;4986582;28;20624;-63
2021/12/19 12:38:21;;;;;;;1.88;0.93;;;;;;;;;;5049655;28;20052;-64
2021/12/19 12:40:56;;;;;;;1.30;0.88;;;;;;;;;;5016930;28;20053;-65
2021/12/19 12:43:31;;;;;;;3.42;1.00;;;;;;;;;;5033356;28;20045;-63
2021/12/19 12:46:18;;;;;;;2.70;1.02;;;;;;;;;;5029421;28;20056;-62
2021/12/19 12:48:55;;;;;;;2.55;1.27;;;;;;;;;;5013192;28;20049;-64
2021/12/19 12:51:40;;;;;;;1.50;1.02;;;;;;;;;;5029638;28;20054;-64
2021/12/19 12:54:24;;;;;;;4.15;0.95;;;;;;;;;;5032496;28;20056;-68
2021/12/19 12:56:57;;;;;;;1.73;1.20;;;;;;;;;;5009238;28;20140;-63
2021/12/19 12:59:31;;;;;;;1.65;1.02;;;;;;;;;;4989895;28;20050;-63
2021/12/19 13:05:00;;;;;;;3.40;1.10;;;;;;;;;;4935214;29;20055;-65
2021/12/19 13:07:30;;;;;;;2.20;1.23;;;;;;;;;;4931434;29;20492;-69
2021/12/19 13:10:01;;;;;;;4.00;1.13;;;;;;;;;;4932064;29;20066;-65
2021/12/19 13:12:39;;;;;;;2.30;0.90;;;;;;;;;;4928512;29;20063;-63
2021/12/19 13:15:15;;;;;;;2.88;1.08;;;;;;;;;;4970087;28;20058;-63
2021/12/19 13:17:50;;;;;;;1.80;0.90;;;;;;;;;;4970492;28;20067;-63
2021/12/19 13:20:31;;;;;;;3.75;1.60;;;;;;;;;;4970287;28;20439;-62
2021/12/19 13:23:03;;;;;;;2.70;1.45;;;;;;;;;;4918375;29;20488;-63
2021/12/19 13:25:40;;;;;;;2.55;1.35;;;;;;;;;;4951291;28;20082;-69
2021/12/19 13:28:12;;;;;;;2.10;0.88;;;;;;;;;;4950893;29;20062;-63
2021/12/19 13:30:46;;;;;;;2.83;1.83;;;;;;;;;;4919385;29;21132;-63
2021/12/19 13:33:19;;;;;;;2.92;1.00;;;;;;;;;;4969888;28;20054;-63
2021/12/19 13:35:53;;;;;;;1.60;1.30;;;;;;;;;;4953527;28;20459;-65
2021/12/19 13:38:26;;;;;;;3.58;1.10;;;;;;;;;;4931521;29;20559;-63
2021/12/19 13:40:59;;;;;;;1.65;1.10;;;;;;;;;;4931163;29;20063;-63
2021/12/19 13:43:32;;;;;;;4.38;1.35;;;;;;;;;;4931565;29;20055;-67
2021/12/19 13:46:14;;;;;;;2.10;1.05;;;;;;;;;;4898706;29;20053;-64
2021/12/19 13:48:54;;;;;;;1.73;1.00;;;;;;;;;;4945707;29;20063;-64
2021/12/19 13:51:28;;;;;;;1.02;0.70;;;;;;;;;;4899753;29;20511;-62
2021/12/19 13:54:02;;;;;;;2.55;1.08;;;;;;;;;;4969373;28;20058;-66
2021/12/19 13:56:34;;;;;;;3.97;1.40;;;;;;;;;;4969868;28;20054;-63
2021/12/19 13:59:16;;;;;;;2.42;1.00;;;;;;;;;;4950401;29;20051;-62
2021/12/19 14:01:47;;;;;;;2.42;1.00;;;;;;;;;;4950745;29;20055;-66
2021/12/19 14:04:23;;;;;;;3.22;1.25;;;;;;;;;;4931179;29;20059;-63
2021/12/19 14:07:03;;;;;;;4.53;1.60;;;;;;;;;;4916147;29;20063;-64
2021/12/19 14:09:55;;;;;;;3.15;1.48;;;;;;;;;;4932786;29;20063;-67
2021/12/19 14:12:53;;;;;;;2.85;1.10;;;;;;;;;;4950859;29;20047;-63
2021/12/19 14:15:20;;;;;;;5.13;1.00;;;;;;;;;;4964391;28;20061;-63
2021/12/19 14:17:50;;;;;;;2.80;1.60;;;;;;;;;;5008891;28;20418;-73
2021/12/19 14:20:34;;;;;;;3.85;1.27;;;;;;;;;;5008812;28;20045;-62
2021/12/19 14:23:18;;;;;;;3.38;1.52;;;;;;;;;;4976374;28;20410;-63
2021/12/19 14:25:51;;;;;;;3.85;1.48;;;;;;;;;;5008904;28;20375;-64
2021/12/19 14:28:33;;;;;;;3.03;1.27;;;;;;;;;;4992839;28;20070;-62
2021/12/19 14:31:06;;;;;;;4.03;1.17;;;;;;;;;;4969355;28;20533;-62
2021/12/19 14:33:39;;;;;;;2.75;0.90;;;;;;;;;;4969502;28;20062;-63
2021/12/19 14:36:10;;;;;;;2.90;1.15;;;;;;;;;;4926840;28;20054;-64
2021/12/19 14:38:42;;;;;;;3.67;1.33;;;;;;;;;;4957695;28;20087;-63
2021/12/19 14:41:12;;;;;;;4.32;1.30;;;;;;;;;;4948980;28;20061;-67
2021/12/19 14:43:44;;;;;;;5.43;1.40;;;;;;;;;;5028314;28;20057;-63
2021/12/19 14:46:25;;;;;;;;;;;;;;;;;;5028630;28;20521;-65
2021/12/19 14:49:10;;;;;;;5.32;1.40;;;;;;;;;;4948048;28;20017;-63
2021/12/19 14:51:40;;;;;;;3.47;1.35;;;;;;;;;;4991166;28;20054;-65
2021/12/19 14:54:11;;;;;;;3.08;1.35;;;;;;;;;;4972816;28;20051;-65
2021/12/19 14:56:44;;;;;;;3.17;1.25;;;;;;;;;;4973147;28;20167;-62
2021/12/19 14:59:17;;;;;;;4.05;1.67;;;;;;;;;;4972832;28;20047;-63
2021/12/19 15:01:47;;;;;;;3.45;1.15;;;;;;;;;;4972465;28;20462;-66
2021/12/19 15:04:38;;;;;;;;;;;;;;;;;;4973470;28;20136;-64
2021/12/19 15:07:09;;;;;;;3.67;1.60;;;;;;;;;;4972606;28;19926;-65
2021/12/19 15:09:40;;;;;;;2.90;1.30;;;;;;;;;;5008100;28;20062;-63
2021/12/19 15:12:10;;;;;;;4.85;1.35;;;;;;;;;;4962929;28;20069;-64
2021/12/19 15:14:40;;;;;;;4.13;1.23;;;;;;;;;;4963305;28;20050;-64
2021/12/19 15:17:11;;;;;;;3.30;1.35;;;;;;;;;;5011401;28;20069;-65
2021/12/19 15:19:41;;;;;;;4.63;1.27;;;;;;;;;;5011642;28;20050;-66
2021/12/19 15:22:12;;;;;;;2.53;1.30;;;;;;;;;;5011512;28;20053;-64
2021/12/19 15:24:42;;;;;;;4.25;1.33;;;;;;;;;;4962960;28;20062;-64
2021/12/19 15:27:12;;;;;;;4.35;1.42;;;;;;;;;;4955925;28;20058;-63
2021/12/19 15:29:42;;;;;;;3.08;1.30;;;;;;;;;;4939995;28;21273;-62
2021/12/19 15:32:14;;;;;;;5.28;1.33;;;;;;;;;;4984791;28;20070;-63
2021/12/19 15:34:44;;;;;;;;;;;;;;;;;;4992515;28;20506;-66
2021/12/19 15:37:14;;;;;;;3.10;1.13;;;;;;;;;;4975071;28;19921;-63
2021/12/19 15:39:44;;;;;;;2.67;1.45;;;;;;;;;;5016159;28;20057;-67
2021/12/19 15:42:15;;;;;;;5.00;1.70;;;;;;;;;;5010947;28;20418;-67
2021/12/19 15:44:46;;;;;;;2.53;1.25;;;;;;;;;;4914395;29;20048;-62
2021/12/19 15:47:16;;;;;;;3.42;1.30;;;;;;;;;;4914322;29;20052;-63
2021/12/19 15:49:47;;;;;;;2.75;1.10;;;;;;;;;;4914500;29;20067;-63
2021/12/19 15:52:18;;;;;;;2.55;1.80;;;;;;;;;;4914287;29;20436;-65
2021/12/19 15:54:48;;;;;;;1.70;1.23;;;;;;;;;;4914762;29;20086;-64
2021/12/19 15:57:19;;;;;;;2.72;1.52;;;;;;;;;;4914450;29;20067;-62
2021/12/19 15:59:49;;;;;;;5.65;1.88;;;;;;;;;;4914469;29;20468;-63
2021/12/19 16:02:20;;;;;;;5.72;1.55;;;;;;;;;;4882364;29;20056;-64
2021/12/19 16:04:51;;;;;;;5.32;1.83;;;;;;;;;;4923869;29;20416;-63
2021/12/19 16:07:21;;;;;;;3.10;1.50;;;;;;;;;;4933213;29;20066;-64
2021/12/19 16:09:53;;;;;;;4.05;1.13;;;;;;;;;;4952290;29;20059;-63
2021/12/19 16:12:25;;;;;;;3.55;1.40;;;;;;;;;;4952483;29;20515;-63
2021/12/19 16:14:56;;;;;;;4.18;1.23;;;;;;;;;;4952206;29;20067;-63
2021/12/19 16:17:27;;;;;;;8.75;1.80;;;;;;;;;;4952055;29;20411;-65
2021/12/19 16:19:57;;;;;;;7.63;1.27;;;;;;;;;;4962991;28;20074;-63
2021/12/19 16:22:27;;;;;;;3.65;1.27;;;;;;;;;;4982297;28;20130;-63
2021/12/19 16:24:59;;;;;;;3.92;1.50;;;;;;;;;;5020582;28;20049;-62
2021/12/19 16:27:29;;;;;;;3.85;1.50;;;;;;;;;;5029983;28;20069;-63
2021/12/19 16:29:59;;;;;;;4.68;1.10;;;;;;;;;;5030161;28;20057;-63
2021/12/19 16:32:30;;;;;;;2.67;1.42;;;;;;;;;;5013860;28;20037;-64
2021/12/19 16:35:01;;;;;;;9.35;1.40;;;;;;;;;;5029989;28;20154;-65